Stella Ada — 9V9082 — position and weather

sailwx.info

Track history (hours):
 
Tides and Currents Weather Stations Pressure Air Temp Water Temp Dewpoint Dewpoint Depression Visibility Wind Speed Wind Dir Waves Ship Positions

Stella Ada

Last reported at 2014-Nov-18 05:15 UTC. Time now 2014-Nov-23 12:22 UTC.
Position N 37°11' E 123°04'.

Length 296 m; draft 9.1 m.

Type: Cargo ship. MMSI: 566089000.

Date/timePositionNaut miles runAvg speedWind from/ knotsBaromVisibWave heightAir tempDewpointWater temp
2014-Nov-18 05:15N 37°11' E 123°04'2413.0
2014-Nov-18 03:25N 37°34' E 122°55'1714.0
2014-Nov-18 02:11N 37°45' E 122°38'1013.8
2014-Nov-18 01:28N 37°49' E 122°27'5213.3
2014-Nov-17 21:31N 38°16' E 121°29'15813.2
2014-Nov-17 09:33N 38°51' E 118°12'1212.3
2014-Nov-17 08:33N 38°57' E 117°58'5 5.4
2014-Nov-17 07:33N 38°57' E 117°51'0 0.0
2014-Nov-17 06:33N 38°57' E 117°51'0 0.0
2014-Nov-17 05:27N 38°57' E 117°51'0 0.0
2014-Nov-17 04:27N 38°57' E 117°51'0 0.0
2014-Nov-17 03:33N 38°57' E 117°51'0 0.0
2014-Nov-17 02:33N 38°57' E 117°51'0 0.0
2014-Nov-17 01:33N 38°57' E 117°51'0 0.0
2014-Nov-17 00:33N 38°57' E 117°51'0 0.0
2014-Nov-16 23:27N 38°57' E 117°51'0 0.0
2014-Nov-16 22:33N 38°57' E 117°51'0 0.0
2014-Nov-16 21:27N 38°57' E 117°51'0 0.0
2014-Nov-16 20:33N 38°57' E 117°51'0 0.0
2014-Nov-16 19:27N 38°57' E 117°51'0 0.0
2014-Nov-16 18:33N 38°57' E 117°51'0 0.0
2014-Nov-16 17:33N 38°57' E 117°51'0 0.0
2014-Nov-16 16:33N 38°57' E 117°51'0 0.0
2014-Nov-16 15:27N 38°57' E 117°51'0 0.0
2014-Nov-16 14:33N 38°57' E 117°51'0 0.0
2014-Nov-16 13:32N 38°57' E 117°51'0 0.0
2014-Nov-16 12:33N 38°57' E 117°51'0 0.0
2014-Nov-16 11:33N 38°57' E 117°51'0 0.0
2014-Nov-16 10:33N 38°57' E 117°51'0 0.0
2014-Nov-16 09:33N 38°57' E 117°51'0 0.0
2014-Nov-16 08:33N 38°57' E 117°51'0 0.0
2014-Nov-16 07:21N 38°57' E 117°51'0 0.0
2014-Nov-16 06:33N 38°57' E 117°51'0 0.0
2014-Nov-16 05:33N 38°57' E 117°51'0 0.0
2014-Nov-16 04:33N 38°57' E 117°51'0 0.0
2014-Nov-16 03:33N 38°57' E 117°51'0 0.0
2014-Nov-16 02:33N 38°57' E 117°51'0 0.0
2014-Nov-16 01:27N 38°57' E 117°51'0 0.0
2014-Nov-16 00:21N 38°57' E 117°51'0 0.0
2014-Nov-15 23:33N 38°57' E 117°51'0 0.0
2014-Nov-15 22:33N 38°57' E 117°51'0 0.0
2014-Nov-15 21:33N 38°57' E 117°51'0 0.0
2014-Nov-15 20:27N 38°57' E 117°51'0 0.0
2014-Nov-15 19:33N 38°57' E 117°51'0 0.0
2014-Nov-15 18:33N 38°57' E 117°51'0 0.0
2014-Nov-15 17:33N 38°57' E 117°51'0 0.0
2014-Nov-15 16:33N 38°57' E 117°51'0 0.0
2014-Nov-15 15:33N 38°57' E 117°51'0 0.0
2014-Nov-15 14:33N 38°57' E 117°51'0 0.0
2014-Nov-15 13:28N 38°57' E 117°51'0 0.0
2014-Nov-15 12:27N 38°57' E 117°51'0 0.0
2014-Nov-15 11:27N 38°57' E 117°51'0 0.0
2014-Nov-15 10:27N 38°57' E 117°51'0 0.0
2014-Nov-15 09:33N 38°57' E 117°51'0 0.0
2014-Nov-15 08:33N 38°57' E 117°51'1 1.3
2014-Nov-15 07:33N 38°57' E 117°53'9 8.6
2014-Nov-15 06:33N 38°56' E 118°03'11 0.5
2014-Nov-14 10:12N 38°48' E 118°14'0 0.0
2014-Nov-13 19:24N 38°48' E 118°14'0 0.3
2014-Nov-13 18:06N 38°48' E 118°14'0 0.0
2014-Nov-13 16:12N 38°48' E 118°14'  
2014-Nov-10 18:31N 38°21' E 121°27'3712.0
2014-Nov-10 15:27N 37°59' E 122°06'1511.8
2014-Nov-10 14:09N 37°52' E 122°22'712.0
2014-Nov-10 13:32N 37°49' E 122°31'5511.0
2014-Nov-10 08:33N 37°03' E 123°08'  
Track history (hours):
 
Tides and Currents Weather Stations Pressure Air Temp Water Temp Dewpoint Dewpoint Depression Visibility Wind Speed Wind Dir Waves Ship Positions

Stella Ada

Last reported at 2014-Nov-18 05:15 UTC. Time now 2014-Nov-23 12:22 UTC.
Position N 37°11' E 123°04'.

Length 296 m; draft 9.1 m.

Type: Cargo ship. MMSI: 566089000.

Date/timePositionNaut miles runAvg speedWind from/ knotsBaromVisibWave heightAir tempDewpointWater temp
2014-Nov-18 05:15N 37°11' E 123°04'2413.0
2014-Nov-18 03:25N 37°34' E 122°55'1714.0
2014-Nov-18 02:11N 37°45' E 122°38'1013.8
2014-Nov-18 01:28N 37°49' E 122°27'5213.3
2014-Nov-17 21:31N 38°16' E 121°29'15813.2
2014-Nov-17 09:33N 38°51' E 118°12'1212.3
2014-Nov-17 08:33N 38°57' E 117°58'5 5.4
2014-Nov-17 07:33N 38°57' E 117°51'0 0.0
2014-Nov-17 06:33N 38°57' E 117°51'0 0.0
2014-Nov-17 05:27N 38°57' E 117°51'0 0.0
2014-Nov-17 04:27N 38°57' E 117°51'0 0.0
2014-Nov-17 03:33N 38°57' E 117°51'0 0.0
2014-Nov-17 02:33N 38°57' E 117°51'0 0.0
2014-Nov-17 01:33N 38°57' E 117°51'0 0.0
2014-Nov-17 00:33N 38°57' E 117°51'0 0.0
2014-Nov-16 23:27N 38°57' E 117°51'0 0.0
2014-Nov-16 22:33N 38°57' E 117°51'0 0.0
2014-Nov-16 21:27N 38°57' E 117°51'0 0.0
2014-Nov-16 20:33N 38°57' E 117°51'0 0.0
2014-Nov-16 19:27N 38°57' E 117°51'0 0.0
2014-Nov-16 18:33N 38°57' E 117°51'0 0.0
2014-Nov-16 17:33N 38°57' E 117°51'0 0.0
2014-Nov-16 16:33N 38°57' E 117°51'0 0.0
2014-Nov-16 15:27N 38°57' E 117°51'0 0.0
2014-Nov-16 14:33N 38°57' E 117°51'0 0.0
2014-Nov-16 13:32N 38°57' E 117°51'0 0.0
2014-Nov-16 12:33N 38°57' E 117°51'0 0.0
2014-Nov-16 11:33N 38°57' E 117°51'0 0.0
2014-Nov-16 10:33N 38°57' E 117°51'0 0.0
2014-Nov-16 09:33N 38°57' E 117°51'0 0.0
2014-Nov-16 08:33N 38°57' E 117°51'0 0.0
2014-Nov-16 07:21N 38°57' E 117°51'0 0.0
2014-Nov-16 06:33N 38°57' E 117°51'0 0.0
2014-Nov-16 05:33N 38°57' E 117°51'0 0.0
2014-Nov-16 04:33N 38°57' E 117°51'0 0.0
2014-Nov-16 03:33N 38°57' E 117°51'0 0.0
2014-Nov-16 02:33N 38°57' E 117°51'0 0.0
2014-Nov-16 01:27N 38°57' E 117°51'0 0.0
2014-Nov-16 00:21N 38°57' E 117°51'0 0.0
2014-Nov-15 23:33N 38°57' E 117°51'0 0.0
2014-Nov-15 22:33N 38°57' E 117°51'0 0.0
2014-Nov-15 21:33N 38°57' E 117°51'0 0.0
2014-Nov-15 20:27N 38°57' E 117°51'0 0.0
2014-Nov-15 19:33N 38°57' E 117°51'0 0.0
2014-Nov-15 18:33N 38°57' E 117°51'0 0.0
2014-Nov-15 17:33N 38°57' E 117°51'0 0.0
2014-Nov-15 16:33N 38°57' E 117°51'0 0.0
2014-Nov-15 15:33N 38°57' E 117°51'0 0.0
2014-Nov-15 14:33N 38°57' E 117°51'0 0.0
2014-Nov-15 13:28N 38°57' E 117°51'0 0.0
2014-Nov-15 12:27N 38°57' E 117°51'0 0.0
2014-Nov-15 11:27N 38°57' E 117°51'0 0.0
2014-Nov-15 10:27N 38°57' E 117°51'0 0.0
2014-Nov-15 09:33N 38°57' E 117°51'0 0.0
2014-Nov-15 08:33N 38°57' E 117°51'1 1.3
2014-Nov-15 07:33N 38°57' E 117°53'9 8.6
2014-Nov-15 06:33N 38°56' E 118°03'11 0.5
2014-Nov-14 10:12N 38°48' E 118°14'0 0.0
2014-Nov-13 19:24N 38°48' E 118°14'0 0.3
2014-Nov-13 18:06N 38°48' E 118°14'0 0.0
2014-Nov-13 16:12N 38°48' E 118°14'  
2014-Nov-10 18:31N 38°21' E 121°27'3712.0
2014-Nov-10 15:27N 37°59' E 122°06'1511.8
2014-Nov-10 14:09N 37°52' E 122°22'712.0
2014-Nov-10 13:32N 37°49' E 122°31'5511.0
2014-Nov-10 08:33N 37°03' E 123°08'  

Dump ship's entire track history